Time;durP1;ratioP1;P1;durP2;ratioP2;P2;SDS_P1;SDS_P2;PMS_P1;PMS_P2;Temp;Humidity;BMP_temperature;BMP_pressure;BME280_temperature;BME280_humidity;BME280_pressure;Samples;Min_cycle;Max_cycle;Signal;HPM_P1;HPM_P2
2021/11/12 10:49:32;;;;;;;10.20;6.03;;;;;;;3.33;100.00;99274.28;5148354;27;20524;-80
2021/11/12 10:52:03;;;;;;;12.93;7.07;;;;;;;3.99;100.00;99302.09;5129085;27;40560;-84
2021/11/12 10:54:40;;;;;;;12.23;7.20;;;;;;;4.41;99.61;99284.25;5113138;27;40883;-89
2021/11/12 10:57:29;;;;;;;12.23;6.77;;;;;;;4.57;95.57;99254.03;5113265;27;41789;-85
2021/11/12 11:00:27;;;;;;;14.13;6.23;;;;;;;5.13;91.98;99290.66;5112648;27;40908;-84
2021/11/12 11:03:16;;;;;;;8.77;6.00;;;;;;;5.18;89.31;99259.00;5113531;27;38998;-83
2021/11/12 11:06:14;;;;;;;10.47;5.77;;;;;;;5.32;87.52;99254.97;5112872;27;41728;-83
2021/11/12 11:09:06;;;;;;;11.27;6.23;;;;;;;5.50;86.33;99263.13;5111340;27;43012;-84
2021/11/12 11:11:40;;;;;;;8.47;5.30;;;;;;;5.88;85.07;99293.28;5111264;27;42120;-79
2021/11/12 11:14:29;;;;;;;10.33;6.13;;;;;;;5.97;83.84;99291.19;5130238;27;39549;-81
2021/11/12 11:16:58;;;;;;;10.53;6.03;;;;;;;5.95;83.84;99276.41;5129357;27;40845;-81
2021/11/12 11:19:46;;;;;;;8.73;6.30;;;;;;;6.12;83.03;99290.63;5127556;27;42333;-81
2021/11/12 11:22:15;;;;;;;8.77;6.13;;;;;;;6.07;82.49;99275.94;5111218;27;42124;-79
2021/11/12 11:24:44;;;;;;;9.93;5.27;;;;;;;6.06;82.46;99269.81;5118893;27;39765;-84
2021/11/12 11:27:11;;;;;;;11.50;6.23;;;;;;;6.10;82.05;99270.56;5108898;27;40368;-80
2021/11/12 11:29:40;;;;;;;11.47;5.77;;;;;;;6.23;81.53;99281.47;5130321;27;42820;-83
2021/11/12 11:32:10;;;;;;;10.83;6.00;;;;;;;6.18;81.35;99278.19;5112040;27;42231;-87
2021/11/12 11:34:38;;;;;;;8.50;4.73;;;;;;;6.18;81.37;99265.91;5112004;27;38917;-85
2021/11/12 11:37:46;;;;;;;9.03;5.83;;;;;;;6.19;81.01;99250.94;5112256;27;40564;-82
2021/11/12 11:41:03;;;;;;;10.53;6.30;;;;;;;6.38;79.90;99271.22;5107398;27;41837;-81
2021/11/12 11:44:12;;;;;;;8.07;5.33;;;;;;;6.10;79.76;99213.56;5107922;27;41441;-82
2021/11/12 11:47:03;;;;;;;8.23;4.73;;;;;;;6.32;79.75;99236.41;5112820;27;39069;-83
2021/11/12 11:49:32;;;;;;;7.27;4.70;;;;;;;6.40;79.46;99247.50;5129370;27;40444;-81
2021/11/12 11:52:25;;;;;;;8.80;5.90;;;;;;;6.45;79.30;99256.06;5112532;27;43522;-84
2021/11/12 11:54:56;;;;;;;10.70;5.93;;;;;;;6.48;79.17;99245.41;5112487;27;40989;-80
2021/11/12 12:00:31;;;;;;;12.23;5.87;;;;;;;6.48;78.65;99241.00;5096759;27;40832;-81
2021/11/12 12:03:31;;;;;;;8.40;4.13;;;;;;;6.50;78.49;99233.06;5098831;27;42512;-85
2021/11/12 12:06:18;;;;;;;9.73;4.93;;;;;;;6.50;78.75;99217.28;5070037;28;43019;-82
2021/11/12 12:09:25;;;;;;;9.47;5.03;;;;;;;6.44;78.32;99218.38;5090397;28;39756;-80
2021/11/12 12:12:03;;;;;;;9.37;5.90;;;;;;;6.47;78.16;99212.13;5077685;28;40726;-87
2021/11/12 12:14:32;;;;;;;7.87;5.23;;;;;;;6.53;78.17;99211.91;5097065;27;41737;-84
2021/11/12 12:17:24;;;;;;;9.07;5.80;;;;;;;6.61;78.44;99220.31;5115004;27;42549;-82
2021/11/12 12:19:57;;;;;;;7.10;4.37;;;;;;;6.65;78.25;99221.94;5097223;27;39262;-81
2021/11/12 12:37:31;;;;;;;6.23;4.03;;;;;;;6.64;77.92;99179.88;5036714;28;41095;-80
2021/11/12 13:21:33;;;;;;;9.03;5.97;;;;;;;6.94;76.94;99143.50;5034490;28;39670;-81
2021/11/12 13:24:16;;;;;;;9.30;6.13;;;;;;;6.87;77.08;99134.16;5071185;28;40903;-81
2021/11/12 13:27:00;;;;;;;9.10;6.43;;;;;;;6.84;77.06;99129.88;5098882;27;42847;-81
2021/11/12 13:29:48;;;;;;;9.53;5.63;;;;;;;6.85;76.88;99124.53;5130756;27;42237;-87
2021/11/12 13:32:16;;;;;;;10.90;5.47;;;;;;;6.86;76.84;99125.41;5078573;27;39357;-85
2021/11/12 13:34:59;;;;;;;10.50;5.37;;;;;;;6.88;76.90;99127.97;5094476;27;40657;-82
2021/11/12 13:37:27;;;;;;;9.50;5.60;;;;;;;6.77;77.02;99116.13;5113889;27;41882;-85
2021/11/12 13:40:26;;;;;;;9.33;5.30;;;;;;;6.68;76.65;99094.59;5129781;27;42172;-82
2021/11/12 13:43:42;;;;;;;10.13;5.60;;;;;;;6.61;76.73;99091.38;5096382;27;39366;-84
2021/11/12 13:46:11;;;;;;;14.47;5.53;;;;;;;6.73;76.76;99125.06;5130045;27;42275;-82
2021/11/12 13:49:08;;;;;;;8.70;5.37;;;;;;;6.57;77.00;99094.19;5096443;27;42917;-79
2021/11/12 13:51:50;;;;;;;10.47;5.47;;;;;;;6.54;76.86;99092.59;5068426;28;41955;-82
2021/11/12 13:54:20;;;;;;;10.10;6.03;;;;;;;6.84;76.81;99143.03;5092977;28;39220;-83
2021/11/12 13:57:19;;;;;;;11.50;6.10;;;;;;;6.66;76.74;99107.84;5075838;28;41408;-84
2021/11/12 14:00:01;;;;;;;7.63;4.73;;;;;;;6.83;76.78;99133.44;5097866;27;41832;-80
2021/11/12 14:03:11;;;;;;;13.60;6.00;;;;;;;6.85;76.99;99145.59;5107778;28;41314;-81
2021/11/12 14:05:57;;;;;;;10.40;5.43;;;;;;;6.47;76.93;99091.09;5092539;28;39125;-85
2021/11/12 14:08:42;;;;;;;11.83;6.17;;;;;;;6.72;76.81;99151.44;5091474;28;40710;-84
2021/11/12 14:11:22;;;;;;;9.60;5.37;;;;;;;6.70;76.84;99151.50;5075596;28;41639;-78
